sensor_id;sensor_type;location;lat;lon;timestamp;pressure;altitude;pressure_sealevel;temperature;humidity
9893;BME280;4985;49.092;8.542;2023-01-25T00:02:06;101060.56;;;11.95;54.62
9893;BME280;4985;49.092;8.542;2023-01-25T00:04:32;101048.34;;;11.94;54.62
9893;BME280;4985;49.092;8.542;2023-01-25T00:06:59;101050.97;;;11.94;54.62
9893;BME280;4985;49.092;8.542;2023-01-25T00:09:25;101042.22;;;11.93;54.64
9893;BME280;4985;49.092;8.542;2023-01-25T00:11:52;101041.38;;;11.93;54.64
9893;BME280;4985;49.092;8.542;2023-01-25T00:14:21;101037.78;;;11.94;54.63
9893;BME280;4985;49.092;8.542;2023-01-25T00:16:48;101042.09;;;11.95;54.63
9893;BME280;4985;49.092;8.542;2023-01-25T00:19:15;101034.16;;;11.95;54.62
9893;BME280;4985;49.092;8.542;2023-01-25T00:21:41;101032.50;;;11.94;54.59
9893;BME280;4985;49.092;8.542;2023-01-25T00:24:08;101033.34;;;11.94;54.61
9893;BME280;4985;49.092;8.542;2023-01-25T00:26:36;101044.72;;;11.95;54.60
9893;BME280;4985;49.092;8.542;2023-01-25T00:29:03;101027.50;;;11.91;54.61
9893;BME280;4985;49.092;8.542;2023-01-25T00:31:40;101028.47;;;11.90;54.62
9893;BME280;4985;49.092;8.542;2023-01-25T00:34:37;101027.22;;;11.94;54.63
9893;BME280;4985;49.092;8.542;2023-01-25T00:37:12;101021.94;;;11.94;54.63
9893;BME280;4985;49.092;8.542;2023-01-25T00:39:39;101027.22;;;11.94;54.65
9893;BME280;4985;49.092;8.542;2023-01-25T00:42:07;101022.78;;;11.94;54.63
9893;BME280;4985;49.092;8.542;2023-01-25T00:44:35;101015.84;;;11.93;54.63
9893;BME280;4985;49.092;8.542;2023-01-25T00:47:03;101016.66;;;11.94;54.63
9893;BME280;4985;49.092;8.542;2023-01-25T00:49:30;101019.16;;;11.95;54.61
9893;BME280;4985;49.092;8.542;2023-01-25T00:51:58;101004.31;;;11.94;54.61
9893;BME280;4985;49.092;8.542;2023-01-25T00:54:25;101000.81;;;11.94;54.62
9893;BME280;4985;49.092;8.542;2023-01-25T00:56:51;100990.28;;;11.94;54.61
9893;BME280;4985;49.092;8.542;2023-01-25T00:59:20;100993.03;;;11.92;54.62
9893;BME280;4985;49.092;8.542;2023-01-25T01:01:47;100979.72;;;11.94;54.63
9893;BME280;4985;49.092;8.542;2023-01-25T01:04:16;100982.34;;;11.94;54.61
9893;BME280;4985;49.092;8.542;2023-01-25T01:06:43;100980.69;;;11.93;54.63
9893;BME280;4985;49.092;8.542;2023-01-25T01:09:12;100985.81;;;11.94;54.63
9893;BME280;4985;49.092;8.542;2023-01-25T01:11:39;100992.06;;;11.93;54.62
9893;BME280;4985;49.092;8.542;2023-01-25T01:14:06;100990.28;;;11.94;54.64
9893;BME280;4985;49.092;8.542;2023-01-25T01:16:33;100985.00;;;11.94;54.62
9893;BME280;4985;49.092;8.542;2023-01-25T01:19:00;101000.00;;;11.93;54.65
9893;BME280;4985;49.092;8.542;2023-01-25T01:21:28;100999.16;;;11.93;54.64
9893;BME280;4985;49.092;8.542;2023-01-25T01:23:54;101005.28;;;11.93;54.65
9893;BME280;4985;49.092;8.542;2023-01-25T01:26:21;100999.16;;;11.93;54.64
9893;BME280;4985;49.092;8.542;2023-01-25T01:28:48;100997.34;;;11.93;54.65
9893;BME280;4985;49.092;8.542;2023-01-25T01:31:16;100995.53;;;11.94;54.61
9893;BME280;4985;49.092;8.542;2023-01-25T01:33:43;100981.53;;;11.93;54.60
9893;BME280;4985;49.092;8.542;2023-01-25T01:36:12;100989.44;;;11.93;54.62
9893;BME280;4985;49.092;8.542;2023-01-25T01:38:41;100985.81;;;11.94;54.62
9893;BME280;4985;49.092;8.542;2023-01-25T01:41:08;100985.00;;;11.94;54.61
9893;BME280;4985;49.092;8.542;2023-01-25T01:43:35;100995.53;;;11.94;54.62
9893;BME280;4985;49.092;8.542;2023-01-25T01:46:04;100989.56;;;11.92;54.62
9893;BME280;4985;49.092;8.542;2023-01-25T01:48:34;100981.38;;;11.95;54.62
9893;BME280;4985;49.092;8.542;2023-01-25T01:51:07;100989.56;;;11.92;54.62
9893;BME280;4985;49.092;8.542;2023-01-25T01:53:37;100980.81;;;11.91;54.63
9893;BME280;4985;49.092;8.542;2023-01-25T01:56:10;100981.53;;;11.93;54.63
9893;BME280;4985;49.092;8.542;2023-01-25T01:58:40;100986.78;;;11.93;54.62
9893;BME280;4985;49.092;8.542;2023-01-25T02:01:08;100992.22;;;11.92;54.62
9893;BME280;4985;49.092;8.542;2023-01-25T02:03:35;100986.78;;;11.93;54.63
9893;BME280;4985;49.092;8.542;2023-01-25T02:06:04;100988.59;;;11.93;54.64
9893;BME280;4985;49.092;8.542;2023-01-25T02:08:36;100988.59;;;11.93;54.64
9893;BME280;4985;49.092;8.542;2023-01-25T02:11:07;100979.72;;;11.94;54.61
9893;BME280;4985;49.092;8.542;2023-01-25T02:13:35;100978.03;;;11.93;54.61
9893;BME280;4985;49.092;8.542;2023-01-25T02:16:03;100979.72;;;11.94;54.61
9893;BME280;4985;49.092;8.542;2023-01-25T02:18:30;100979.72;;;11.94;54.61
9893;BME280;4985;49.092;8.542;2023-01-25T02:20:58;100983.31;;;11.93;54.64
9893;BME280;4985;49.092;8.542;2023-01-25T02:23:32;100979.72;;;11.94;54.63
9893;BME280;4985;49.092;8.542;2023-01-25T02:26:04;100972.75;;;11.93;54.63
9893;BME280;4985;49.092;8.542;2023-01-25T02:28:35;100974.44;;;11.94;54.61
9893;BME280;4985;49.092;8.542;2023-01-25T02:31:04;100978.03;;;11.93;54.61
9893;BME280;4985;49.092;8.542;2023-01-25T02:33:31;100981.38;;;11.95;54.60
9893;BME280;4985;49.092;8.542;2023-01-25T02:35:59;100966.78;;;11.91;54.59
9893;BME280;4985;49.092;8.542;2023-01-25T02:38:28;100972.50;;;11.96;54.59
9893;BME280;4985;49.092;8.542;2023-01-25T02:41:01;100968.31;;;11.93;54.61
9893;BME280;4985;49.092;8.542;2023-01-25T02:43:31;100961.25;;;11.94;54.60
9893;BME280;4985;49.092;8.542;2023-01-25T02:46:02;100952.75;;;11.90;54.61
9893;BME280;4985;49.092;8.542;2023-01-25T02:48:34;100953.47;;;11.92;54.62
9893;BME280;4985;49.092;8.542;2023-01-25T02:51:01;100953.31;;;11.94;54.60
9893;BME280;4985;49.092;8.542;2023-01-25T02:53:28;100947.59;;;11.89;54.60
9893;BME280;4985;49.092;8.542;2023-01-25T02:55:54;100952.50;;;11.93;54.60
9893;BME280;4985;49.092;8.542;2023-01-25T02:58:21;100956.94;;;11.93;54.60
9893;BME280;4985;49.092;8.542;2023-01-25T03:00:49;100952.50;;;11.93;54.60
9893;BME280;4985;49.092;8.542;2023-01-25T03:03:16;100945.53;;;11.92;54.61
9893;BME280;4985;49.092;8.542;2023-01-25T03:05:42;100950.69;;;11.94;54.60
9893;BME280;4985;49.092;8.542;2023-01-25T03:08:09;100941.38;;;11.90;54.62
9893;BME280;4985;49.092;8.542;2023-01-25T03:10:35;100942.06;;;11.92;54.61
9893;BME280;4985;49.092;8.542;2023-01-25T03:13:02;100949.97;;;11.92;54.61
9893;BME280;4985;49.092;8.542;2023-01-25T03:15:29;100936.19;;;11.88;54.59
9893;BME280;4985;49.092;8.542;2023-01-25T03:17:56;100951.66;;;11.93;54.60
9893;BME280;4985;49.092;8.542;2023-01-25T03:20:23;100953.47;;;11.92;54.60
9893;BME280;4985;49.092;8.542;2023-01-25T03:22:50;100948.03;;;11.94;54.60
9893;BME280;4985;49.092;8.542;2023-01-25T03:25:16;100947.34;;;11.92;54.61
9893;BME280;4985;49.092;8.542;2023-01-25T03:27:43;100941.09;;;11.93;54.61
9893;BME280;4985;49.092;8.542;2023-01-25T03:30:10;100941.94;;;11.93;54.59
9893;BME280;4985;49.092;8.542;2023-01-25T03:32:37;100937.63;;;11.92;54.60
9893;BME280;4985;49.092;8.542;2023-01-25T03:35:05;100934.16;;;11.92;54.61
9893;BME280;4985;49.092;8.542;2023-01-25T03:37:32;100938.47;;;11.93;54.59
9893;BME280;4985;49.092;8.542;2023-01-25T03:39:59;100930.53;;;11.93;54.59
9893;BME280;4985;49.092;8.542;2023-01-25T03:42:25;100933.19;;;11.93;54.58
9893;BME280;4985;49.092;8.542;2023-01-25T03:44:52;100936.78;;;11.92;54.59
9893;BME280;4985;49.092;8.542;2023-01-25T03:47:18;100935.69;;;11.94;54.59
9893;BME280;4985;49.092;8.542;2023-01-25T03:49:45;100932.22;;;11.94;54.58
9893;BME280;4985;49.092;8.542;2023-01-25T03:52:13;100938.47;;;11.93;54.59
9893;BME280;4985;49.092;8.542;2023-01-25T03:54:39;100936.78;;;11.92;54.60
9893;BME280;4985;49.092;8.542;2023-01-25T03:57:06;100937.63;;;11.92;54.59
9893;BME280;4985;49.092;8.542;2023-01-25T03:59:32;100940.12;;;11.94;54.57
9893;BME280;4985;49.092;8.542;2023-01-25T04:01:59;100941.09;;;11.93;54.57
9893;BME280;4985;49.092;8.542;2023-01-25T04:04:27;100934.97;;;11.92;54.57
9893;BME280;4985;49.092;8.542;2023-01-25T04:06:53;100932.22;;;11.94;54.56
9893;BME280;4985;49.092;8.542;2023-01-25T04:09:21;100929.69;;;11.92;54.56
9893;BME280;4985;49.092;8.542;2023-01-25T04:11:48;100934.84;;;11.94;54.54
9893;BME280;4985;49.092;8.542;2023-01-25T04:14:15;100937.50;;;11.94;54.55
9893;BME280;4985;49.092;8.542;2023-01-25T04:16:41;100934.84;;;11.94;54.54
9893;BME280;4985;49.092;8.542;2023-01-25T04:19:08;100934.84;;;11.94;54.52
9893;BME280;4985;49.092;8.542;2023-01-25T04:21:35;100929.56;;;11.94;54.53
9893;BME280;4985;49.092;8.542;2023-01-25T04:24:01;100934.84;;;11.94;54.50
9893;BME280;4985;49.092;8.542;2023-01-25T04:26:29;100926.94;;;11.94;54.53
9893;BME280;4985;49.092;8.542;2023-01-25T04:28:56;100926.09;;;11.93;54.51
9893;BME280;4985;49.092;8.542;2023-01-25T04:31:22;100920.81;;;11.93;54.53
9893;BME280;4985;49.092;8.542;2023-01-25T04:33:49;100915.53;;;11.93;54.53
9893;BME280;4985;49.092;8.542;2023-01-25T04:36:15;100919.97;;;11.93;54.53
9893;BME280;4985;49.092;8.542;2023-01-25T04:38:42;100913.28;;;11.89;54.53
9893;BME280;4985;49.092;8.542;2023-01-25T04:41:08;100919.97;;;11.93;54.53
9893;BME280;4985;49.092;8.542;2023-01-25T04:43:36;100918.31;;;11.92;54.55
9893;BME280;4985;49.092;8.542;2023-01-25T04:46:03;100914.69;;;11.93;54.54
9893;BME280;4985;49.092;8.542;2023-01-25T04:48:30;100914.69;;;11.93;54.53
9893;BME280;4985;49.092;8.542;2023-01-25T04:50:57;100909.44;;;11.93;54.53
9893;BME280;4985;49.092;8.542;2023-01-25T04:53:24;100910.25;;;11.93;54.51
9893;BME280;4985;49.092;8.542;2023-01-25T04:55:50;100912.91;;;11.93;54.51
9893;BME280;4985;49.092;8.542;2023-01-25T04:58:17;100909.28;;;11.94;54.47
9893;BME280;4985;49.092;8.542;2023-01-25T05:00:45;100911.94;;;11.94;54.48
9893;BME280;4985;49.092;8.542;2023-01-25T05:03:12;100904.97;;;11.93;54.47
9893;BME280;4985;49.092;8.542;2023-01-25T05:05:38;100909.28;;;11.94;54.48
9893;BME280;4985;49.092;8.542;2023-01-25T05:08:08;100902.34;;;11.93;54.47
9893;BME280;4985;49.092;8.542;2023-01-25T05:10:35;100905.81;;;11.94;54.45
9893;BME280;4985;49.092;8.542;2023-01-25T05:13:01;100907.47;;;11.95;54.46
9893;BME280;4985;49.092;8.542;2023-01-25T05:15:28;100911.94;;;11.94;54.47
9893;BME280;4985;49.092;8.542;2023-01-25T05:17:56;100911.09;;;11.94;54.48
9893;BME280;4985;49.092;8.542;2023-01-25T05:20:22;100906.78;;;11.93;54.48
9893;BME280;4985;49.092;8.542;2023-01-25T05:22:49;100903.31;;;11.92;54.49
9893;BME280;4985;49.092;8.542;2023-01-25T05:25:15;100908.59;;;11.92;54.51
9893;BME280;4985;49.092;8.542;2023-01-25T05:28:03;100901.50;;;11.93;54.47
9893;BME280;4985;49.092;8.542;2023-01-25T05:30:29;100898.88;;;11.93;54.47
9893;BME280;4985;49.092;8.542;2023-01-25T05:32:57;100904.16;;;11.93;54.47
9893;BME280;4985;49.092;8.542;2023-01-25T05:35:24;100907.63;;;11.93;54.47
9893;BME280;4985;49.092;8.542;2023-01-25T05:37:55;100903.31;;;11.92;54.48
9893;BME280;4985;49.092;8.542;2023-01-25T05:40:21;100908.59;;;11.92;54.49
9893;BME280;4985;49.092;8.542;2023-01-25T05:42:52;100907.75;;;11.92;54.49
9893;BME280;4985;49.092;8.542;2023-01-25T05:45:19;100910.53;;;11.90;54.48
9893;BME280;4985;49.092;8.542;2023-01-25T05:47:45;100908.59;;;11.92;54.46
9893;BME280;4985;49.092;8.542;2023-01-25T05:50:14;100910.41;;;11.92;54.47
9893;BME280;4985;49.092;8.542;2023-01-25T05:52:40;100905.13;;;11.92;54.48
9893;BME280;4985;49.092;8.542;2023-01-25T05:55:07;100907.75;;;11.92;54.50
9893;BME280;4985;49.092;8.542;2023-01-25T05:57:34;100901.66;;;11.91;54.49
9893;BME280;4985;49.092;8.542;2023-01-25T06:00:02;100895.53;;;11.91;54.50
9893;BME280;4985;49.092;8.542;2023-01-25T06:02:28;100894.69;;;11.90;54.51
9893;BME280;4985;49.092;8.542;2023-01-25T06:04:56;100897.34;;;11.90;54.53
9893;BME280;4985;49.092;8.542;2023-01-25T06:07:24;100887.63;;;11.91;54.50
9893;BME280;4985;49.092;8.542;2023-01-25T06:09:50;100886.66;;;11.92;54.50
9893;BME280;4985;49.092;8.542;2023-01-25T06:12:20;100887.63;;;11.91;54.50
9893;BME280;4985;49.092;8.542;2023-01-25T06:14:47;100884.16;;;11.90;54.50
9893;BME280;4985;49.092;8.542;2023-01-25T06:17:13;100877.06;;;11.91;54.51
9893;BME280;4985;49.092;8.542;2023-01-25T06:19:40;100872.75;;;11.90;54.49
9893;BME280;4985;49.092;8.542;2023-01-25T06:22:06;100870.94;;;11.90;54.49
9893;BME280;4985;49.092;8.542;2023-01-25T06:24:34;100861.47;;;11.88;54.49
9893;BME280;4985;49.092;8.542;2023-01-25T06:27:01;100868.31;;;11.90;54.49
9893;BME280;4985;49.092;8.542;2023-01-25T06:29:28;100862.19;;;11.90;54.51
9893;BME280;4985;49.092;8.542;2023-01-25T06:31:54;100859.56;;;11.90;54.51
9893;BME280;4985;49.092;8.542;2023-01-25T06:34:21;100865.66;;;11.90;54.49
9893;BME280;4985;49.092;8.542;2023-01-25T06:36:49;100863.13;;;11.89;54.51
9893;BME280;4985;49.092;8.542;2023-01-25T06:39:15;100858.81;;;11.88;54.53
9893;BME280;4985;49.092;8.542;2023-01-25T06:41:43;100854.37;;;11.88;54.54
9893;BME280;4985;49.092;8.542;2023-01-25T06:44:10;100855.22;;;11.89;54.54
9893;BME280;4985;49.092;8.542;2023-01-25T06:46:36;100855.22;;;11.89;54.53
9893;BME280;4985;49.092;8.542;2023-01-25T06:49:03;100854.37;;;11.88;54.54
9893;BME280;4985;49.092;8.542;2023-01-25T06:51:30;100842.44;;;11.84;54.53
9893;BME280;4985;49.092;8.542;2023-01-25T06:54:00;100856.19;;;11.88;54.54
9893;BME280;4985;49.092;8.542;2023-01-25T06:56:27;100862.31;;;11.88;54.55
9893;BME280;4985;49.092;8.542;2023-01-25T06:58:55;100858.81;;;11.88;54.53
9893;BME280;4985;49.092;8.542;2023-01-25T07:01:23;100862.31;;;11.88;54.52
9893;BME280;4985;49.092;8.542;2023-01-25T07:03:53;100853.56;;;11.88;54.53
9893;BME280;4985;49.092;8.542;2023-01-25T07:06:21;100863.13;;;11.89;54.51
9893;BME280;4985;49.092;8.542;2023-01-25T07:08:48;100863.28;;;11.87;54.52
9893;BME280;4985;49.092;8.542;2023-01-25T07:11:15;100858.81;;;11.88;54.51
9893;BME280;4985;49.092;8.542;2023-01-25T07:13:44;100855.50;;;11.86;54.55
9893;BME280;4985;49.092;8.542;2023-01-25T07:16:15;100852.03;;;11.85;54.56
9893;BME280;4985;49.092;8.542;2023-01-25T07:18:42;100853.81;;;11.85;54.61
9893;BME280;4985;49.092;8.542;2023-01-25T07:21:11;100857.44;;;11.84;54.60
9893;BME280;4985;49.092;8.542;2023-01-25T07:23:38;100853.97;;;11.83;54.62
9893;BME280;4985;49.092;8.542;2023-01-25T07:26:13;100853.97;;;11.83;54.63
9893;BME280;4985;49.092;8.542;2023-01-25T07:28:40;100852.16;;;11.84;54.62
9893;BME280;4985;49.092;8.542;2023-01-25T07:31:07;100851.31;;;11.83;54.65
9893;BME280;4985;49.092;8.542;2023-01-25T07:33:35;100853.25;;;11.81;54.63
9893;BME280;4985;49.092;8.542;2023-01-25T07:36:02;100846.87;;;11.84;54.61
9893;BME280;4985;49.092;8.542;2023-01-25T07:38:29;100852.16;;;11.84;54.59
9893;BME280;4985;49.092;8.542;2023-01-25T07:40:56;100849.38;;;11.85;54.62
9893;BME280;4985;49.092;8.542;2023-01-25T07:43:22;100845.22;;;11.83;54.62
9893;BME280;4985;49.092;8.542;2023-01-25T07:45:49;100842.44;;;11.84;54.60
9893;BME280;4985;49.092;8.542;2023-01-25T07:48:17;100844.25;;;11.84;54.58
9893;BME280;4985;49.092;8.542;2023-01-25T07:50:45;100843.28;;;11.85;54.58
9893;BME280;4985;49.092;8.542;2023-01-25T07:53:13;100842.44;;;11.84;54.59
9893;BME280;4985;49.092;8.542;2023-01-25T07:55:40;100854.66;;;11.85;54.57
9893;BME280;4985;49.092;8.542;2023-01-25T07:58:07;100849.38;;;11.85;54.58
9893;BME280;4985;49.092;8.542;2023-01-25T08:00:33;100850.34;;;11.84;54.58
9893;BME280;4985;49.092;8.542;2023-01-25T08:03:00;100848.53;;;11.85;54.55
9893;BME280;4985;49.092;8.542;2023-01-25T08:05:27;100849.38;;;11.85;54.57
9893;BME280;4985;49.092;8.542;2023-01-25T08:07:55;100852.03;;;11.85;54.56
9893;BME280;4985;49.092;8.542;2023-01-25T08:10:21;100859.09;;;11.85;54.57
9893;BME280;4985;49.092;8.542;2023-01-25T08:12:48;100851.19;;;11.85;54.57
9893;BME280;4985;49.092;8.542;2023-01-25T08:15:14;100852.16;;;11.84;54.56
9893;BME280;4985;49.092;8.542;2023-01-25T08:17:41;100848.53;;;11.85;54.57
9893;BME280;4985;49.092;8.542;2023-01-25T08:20:09;100850.34;;;11.84;54.57
9893;BME280;4985;49.092;8.542;2023-01-25T08:22:36;100861.75;;;11.85;54.58
9893;BME280;4985;49.092;8.542;2023-01-25T08:25:05;100855.62;;;11.84;54.57
9893;BME280;4985;49.092;8.542;2023-01-25T08:27:32;100851.19;;;11.85;54.57
9893;BME280;4985;49.092;8.542;2023-01-25T08:29:59;100850.34;;;11.84;54.56
9893;BME280;4985;49.092;8.542;2023-01-25T08:32:25;100848.53;;;11.85;54.56
9893;BME280;4985;49.092;8.542;2023-01-25T08:34:52;100841.59;;;11.84;54.58
9893;BME280;4985;49.092;8.542;2023-01-25T08:37:18;100845.22;;;11.83;54.61
9893;BME280;4985;49.092;8.542;2023-01-25T08:39:45;100843.53;;;11.82;54.62
9893;BME280;4985;49.092;8.542;2023-01-25T08:42:14;100832.16;;;11.81;54.64
9893;BME280;4985;49.092;8.542;2023-01-25T08:44:40;100835.62;;;11.82;54.65
9893;BME280;4985;49.092;8.542;2023-01-25T08:47:07;100835.62;;;11.82;54.65
9893;BME280;4985;49.092;8.542;2023-01-25T08:49:33;100836.59;;;11.81;54.66
9893;BME280;4985;49.092;8.542;2023-01-25T08:52:00;100831.31;;;11.81;54.66
9893;BME280;4985;49.092;8.542;2023-01-25T08:54:26;100828.53;;;11.82;54.65
9893;BME280;4985;49.092;8.542;2023-01-25T08:56:53;100826.03;;;11.81;54.66
9893;BME280;4985;49.092;8.542;2023-01-25T08:59:21;100831.31;;;11.81;54.66
9893;BME280;4985;49.092;8.542;2023-01-25T09:01:48;100826.03;;;11.81;54.64
9893;BME280;4985;49.092;8.542;2023-01-25T09:04:14;100822.44;;;11.82;54.63
9893;BME280;4985;49.092;8.542;2023-01-25T09:06:41;100824.09;;;11.83;54.63
9893;BME280;4985;49.092;8.542;2023-01-25T09:09:07;100823.13;;;11.84;54.60
9893;BME280;4985;49.092;8.542;2023-01-25T09:11:35;100818.81;;;11.83;54.59
9893;BME280;4985;49.092;8.542;2023-01-25T09:14:02;100823.28;;;11.82;54.58
9893;BME280;4985;49.092;8.542;2023-01-25T09:16:30;100822.28;;;11.83;54.59
9893;BME280;4985;49.092;8.542;2023-01-25T09:18:58;100826.59;;;11.84;54.60
9893;BME280;4985;49.092;8.542;2023-01-25T09:21:26;100818.81;;;11.83;54.59
9893;BME280;4985;49.092;8.542;2023-01-25T09:23:53;100819.66;;;11.83;54.59
9893;BME280;4985;49.092;8.542;2023-01-25T09:26:20;100819.66;;;11.83;54.59
9893;BME280;4985;49.092;8.542;2023-01-25T09:28:48;100819.09;;;11.80;54.61
9893;BME280;4985;49.092;8.542;2023-01-25T09:31:15;100823.28;;;11.82;54.61
9893;BME280;4985;49.092;8.542;2023-01-25T09:33:44;100823.28;;;11.82;54.62
9893;BME280;4985;49.092;8.542;2023-01-25T09:36:11;100822.44;;;11.82;54.64
9893;BME280;4985;49.092;8.542;2023-01-25T09:38:38;100819.78;;;11.82;54.63
9893;BME280;4985;49.092;8.542;2023-01-25T09:41:13;100819.78;;;11.82;54.63
9893;BME280;4985;49.092;8.542;2023-01-25T09:46:40;100812.84;;;11.81;54.66
9893;BME280;4985;49.092;8.542;2023-01-25T09:49:19;100819.78;;;11.82;54.66
9893;BME280;4985;49.092;8.542;2023-01-25T09:52:07;100817.16;;;11.82;54.65
9893;BME280;4985;49.092;8.542;2023-01-25T09:54:41;100821.59;;;11.81;54.65
9893;BME280;4985;49.092;8.542;2023-01-25T09:57:13;100811.03;;;11.81;54.67
9893;BME280;4985;49.092;8.542;2023-01-25T09:59:41;100810.34;;;11.79;54.69
9893;BME280;4985;49.092;8.542;2023-01-25T10:02:18;100801.12;;;11.74;54.70
9893;BME280;4985;49.092;8.542;2023-01-25T10:04:51;100815.50;;;11.81;54.70
9893;BME280;4985;49.092;8.542;2023-01-25T10:07:24;100809.38;;;11.80;54.70
9893;BME280;4985;49.092;8.542;2023-01-25T10:09:56;100808.53;;;11.80;54.70
9893;BME280;4985;49.092;8.542;2023-01-25T10:12:36;100809.38;;;11.80;54.70
9893;BME280;4985;49.092;8.542;2023-01-25T10:15:16;100802.28;;;11.81;54.71
9893;BME280;4985;49.092;8.542;2023-01-25T10:17:43;100803.28;;;11.80;54.71
9893;BME280;4985;49.092;8.542;2023-01-25T10:20:25;100803.28;;;11.80;54.71
9893;BME280;4985;49.092;8.542;2023-01-25T10:23:06;100797.16;;;11.79;54.71
9893;BME280;4985;49.092;8.542;2023-01-25T10:25:39;100790.91;;;11.80;54.72
9893;BME280;4985;49.092;8.542;2023-01-25T10:28:19;100798.81;;;11.80;54.71
9893;BME280;4985;49.092;8.542;2023-01-25T10:30:54;100787.44;;;11.80;54.71
9893;BME280;4985;49.092;8.542;2023-01-25T10:33:21;100787.44;;;11.80;54.71
9893;BME280;4985;49.092;8.542;2023-01-25T10:35:49;100783.00;;;11.80;54.71
9893;BME280;4985;49.092;8.542;2023-01-25T10:38:19;100777.72;;;11.80;54.73
9893;BME280;4985;49.092;8.542;2023-01-25T10:40:51;100775.19;;;11.79;54.74
9893;BME280;4985;49.092;8.542;2023-01-25T10:43:20;100786.59;;;11.79;54.79
9893;BME280;4985;49.092;8.542;2023-01-25T10:45:48;100776.06;;;11.79;54.74
9893;BME280;4985;49.092;8.542;2023-01-25T10:48:18;100778.56;;;11.81;54.73
9893;BME280;4985;49.092;8.542;2023-01-25T10:50:51;100778.56;;;11.81;54.72
9893;BME280;4985;49.092;8.542;2023-01-25T10:53:27;100776.75;;;11.81;54.71
9893;BME280;4985;49.092;8.542;2023-01-25T10:56:20;100763.56;;;11.81;54.71
9893;BME280;4985;49.092;8.542;2023-01-25T10:58:48;100766.31;;;11.80;54.75
9893;BME280;4985;49.092;8.542;2023-01-25T11:01:28;100762.84;;;11.79;54.73
9893;BME280;4985;49.092;8.542;2023-01-25T11:03:55;100765.50;;;11.79;54.74
9893;BME280;4985;49.092;8.542;2023-01-25T11:06:31;100758.41;;;11.80;54.76
9893;BME280;4985;49.092;8.542;2023-01-25T11:08:58;100762.72;;;11.81;54.75
9893;BME280;4985;49.092;8.542;2023-01-25T11:11:33;100762.84;;;11.79;54.74
9893;BME280;4985;49.092;8.542;2023-01-25T11:14:02;100761.06;;;11.80;54.75
9893;BME280;4985;49.092;8.542;2023-01-25T11:16:44;100747.88;;;11.80;54.75
9893;BME280;4985;49.092;8.542;2023-01-25T11:19:24;100740.78;;;11.80;54.74
9893;BME280;4985;49.092;8.542;2023-01-25T11:21:54;100738.25;;;11.79;54.76
9893;BME280;4985;49.092;8.542;2023-01-25T11:24:25;100736.34;;;11.81;54.75
9893;BME280;4985;49.092;8.542;2023-01-25T11:27:10;100734.53;;;11.81;54.74
9893;BME280;4985;49.092;8.542;2023-01-25T11:29:38;100726.62;;;11.81;54.73
9893;BME280;4985;49.092;8.542;2023-01-25T11:32:13;100714.50;;;11.79;54.72
9893;BME280;4985;49.092;8.542;2023-01-25T11:34:41;100718.69;;;11.81;54.72
9893;BME280;4985;49.092;8.542;2023-01-25T11:37:39;100709.13;;;11.80;54.74
9893;BME280;4985;49.092;8.542;2023-01-25T11:40:16;100707.16;;;11.82;54.72
9893;BME280;4985;49.092;8.542;2023-01-25T11:42:54;100702.16;;;11.79;54.71
9893;BME280;4985;49.092;8.542;2023-01-25T11:45:38;100695.78;;;11.82;54.72
9893;BME280;4985;49.092;8.542;2023-01-25T11:48:22;100682.84;;;11.79;54.71
9893;BME280;4985;49.092;8.542;2023-01-25T11:50:58;100678.16;;;11.82;54.72
9893;BME280;4985;49.092;8.542;2023-01-25T11:53:48;100681.63;;;11.83;54.71
9893;BME280;4985;49.092;8.542;2023-01-25T11:56:26;100670.22;;;11.82;54.70
9893;BME280;4985;49.092;8.542;2023-01-25T11:59:08;100680.66;;;11.84;54.68
9893;BME280;4985;49.092;8.542;2023-01-25T12:01:47;100671.91;;;11.83;54.68
9893;BME280;4985;49.092;8.542;2023-01-25T12:07:21;100648.00;;;11.85;54.65
9893;BME280;4985;49.092;8.542;2023-01-25T12:10:11;100645.38;;;11.85;54.65
9893;BME280;4985;49.092;8.542;2023-01-25T12:12:44;100635.78;;;11.84;54.66
9893;BME280;4985;49.092;8.542;2023-01-25T12:15:26;100633.44;;;11.81;54.66
9893;BME280;4985;49.092;8.542;2023-01-25T12:18:19;100628.84;;;11.83;54.69
9893;BME280;4985;49.092;8.542;2023-01-25T12:21:01;100623.56;;;11.83;54.69
9893;BME280;4985;49.092;8.542;2023-01-25T12:23:35;100616.34;;;11.85;54.70
9893;BME280;4985;49.092;8.542;2023-01-25T12:26:15;100615.50;;;11.84;54.68
9893;BME280;4985;49.092;8.542;2023-01-25T12:28:47;100611.06;;;11.85;54.66
9893;BME280;4985;49.092;8.542;2023-01-25T12:31:18;100602.19;;;11.86;54.65
9893;BME280;4985;49.092;8.542;2023-01-25T12:33:52;100603.00;;;11.86;54.64
9893;BME280;4985;49.092;8.542;2023-01-25T12:36:26;100596.06;;;11.85;54.64
9893;BME280;4985;49.092;8.542;2023-01-25T12:38:56;100590.94;;;11.84;54.67
9893;BME280;4985;49.092;8.542;2023-01-25T12:41:31;100584.81;;;11.83;54.70
9893;BME280;4985;49.092;8.542;2023-01-25T12:44:05;100577.75;;;11.84;54.70
9893;BME280;4985;49.092;8.542;2023-01-25T12:46:37;100575.09;;;11.84;54.72
9893;BME280;4985;49.092;8.542;2023-01-25T12:49:14;100571.63;;;11.83;54.72
9893;BME280;4985;49.092;8.542;2023-01-25T12:51:44;100572.47;;;11.84;54.72
9893;BME280;4985;49.092;8.542;2023-01-25T12:54:17;100565.53;;;11.83;54.73
9893;BME280;4985;49.092;8.542;2023-01-25T12:56:53;100558.28;;;11.85;54.74
9893;BME280;4985;49.092;8.542;2023-01-25T12:59:28;100559.28;;;11.84;54.75
9893;BME280;4985;49.092;8.542;2023-01-25T13:02:08;100556.63;;;11.84;54.76
9893;BME280;4985;49.092;8.542;2023-01-25T13:04:53;100558.44;;;11.83;54.77
9893;BME280;4985;49.092;8.542;2023-01-25T13:07:29;100544.28;;;11.84;54.74
9893;BME280;4985;49.092;8.542;2023-01-25T13:10:02;100542.59;;;11.83;54.75
9893;BME280;4985;49.092;8.542;2023-01-25T13:12:49;100534.69;;;11.83;54.75
9893;BME280;4985;49.092;8.542;2023-01-25T13:15:38;100532.88;;;11.84;54.75
9893;BME280;4985;49.092;8.542;2023-01-25T13:18:32;100524.97;;;11.84;54.74
9893;BME280;4985;49.092;8.542;2023-01-25T13:21:01;100526.62;;;11.85;54.74
9893;BME280;4985;49.092;8.542;2023-01-25T13:23:31;100519.69;;;11.84;54.74
9893;BME280;4985;49.092;8.542;2023-01-25T13:29:06;100521.34;;;11.85;54.74
9893;BME280;4985;49.092;8.542;2023-01-25T13:31:50;100524.69;;;11.87;54.74
9893;BME280;4985;49.092;8.542;2023-01-25T13:37:18;100517.75;;;11.86;54.71